Time;durP1;ratioP1;P1;durP2;ratioP2;P2;SDS_P1;SDS_P2;PMS_P1;PMS_P2;Temp;Humidity;BMP_temperature;BMP_pressure;BME280_temperature;BME280_humidity;BME280_pressure;Samples;Min_cycle;Max_cycle;Signal;HPM_P1;HPM_P2
2022/05/29 00:01:16;;;;;;;;;2.00;2.00;;;;;16.72;39.63;101060.06;5097314;27;45459;-61
2022/05/29 00:03:42;;;;;;;;;1.67;1.67;;;;;16.75;39.10;101059.91;5097389;27;45503;-63
2022/05/29 00:06:10;;;;;;;;;2.00;2.00;;;;;16.68;39.03;101055.84;5097558;27;45536;-64
2022/05/29 00:08:39;;;;;;;;;2.00;2.00;;;;;16.71;38.94;101055.69;5095656;27;47527;-64
2022/05/29 00:11:07;;;;;;;;;2.00;2.00;;;;;16.80;39.98;101049.06;5097027;27;45498;-63
2022/05/29 00:13:32;;;;;;;;;2.00;2.00;;;;;16.70;39.93;101051.31;5097083;27;45492;-64
2022/05/29 00:15:58;;;;;;;;;4.00;2.00;;;;;16.69;39.52;101049.59;5097008;27;45736;-64
2022/05/29 00:18:25;;;;;;;;;1.00;1.00;;;;;16.62;39.38;101053.53;5097040;27;45559;-64
2022/05/29 00:20:54;;;;;;;;;3.33;2.00;;;;;16.64;40.15;101048.13;5096986;27;45481;-62
2022/05/29 00:23:20;;;;;;;;;2.00;2.00;;;;;16.62;39.23;101053.53;5097286;27;45415;-63
2022/05/29 00:25:48;;;;;;;;;1.67;1.67;;;;;16.56;40.02;101048.53;5097114;27;45571;-63
2022/05/29 00:28:14;;;;;;;;;2.00;2.00;;;;;16.54;39.80;101058.38;5096701;27;46279;-61
2022/05/29 00:30:40;;;;;;;;;3.00;3.00;;;;;16.54;40.47;101055.72;5096773;27;45521;-63
2022/05/29 00:33:06;;;;;;;;;1.33;1.00;;;;;16.43;39.73;101036.84;5096911;27;45432;-62
2022/05/29 00:35:31;;;;;;;;;2.67;2.67;;;;;16.45;40.05;101041.16;5096482;27;45698;-64
2022/05/29 00:37:57;;;;;;;;;1.33;1.33;;;;;16.48;39.90;101040.13;5096609;27;45683;-64
2022/05/29 00:41:00;;;;;;;;;2.00;2.00;;;;;16.50;40.56;101043.56;5096869;27;45488;-63
2022/05/29 00:43:25;;;;;;;;;1.00;1.00;;;;;16.54;39.99;101047.75;5096710;27;45481;-63
2022/05/29 00:46:00;;;;;;;;;1.33;1.33;;;;;16.52;39.89;101045.19;5096568;27;45371;-62
2022/05/29 00:48:26;;;;;;;;;1.67;1.67;;;;;16.56;40.34;101038.78;5096676;27;46375;-63
2022/05/29 00:50:58;;;;;;;;;2.00;2.00;;;;;16.58;40.38;101036.06;5096547;27;45504;-62
2022/05/29 00:53:24;;;;;;;;;2.00;2.00;;;;;16.47;40.83;101031.31;5096565;27;45553;-61
2022/05/29 00:55:55;;;;;;;;;1.00;1.00;;;;;16.50;39.97;101035.59;5096610;27;45586;-63
2022/05/29 00:58:23;;;;;;;;;3.67;2.00;;;;;16.50;40.64;101040.91;5096269;27;45480;-63
2022/05/29 01:00:51;;;;;;;;;2.00;2.00;;;;;16.39;40.40;101033.50;5096468;27;45544;-64
2022/05/29 01:03:16;;;;;;;;;2.00;1.67;;;;;16.37;40.35;101038.03;5094426;27;45465;-63
2022/05/29 01:05:41;;;;;;;;;1.00;1.00;;;;;16.35;40.88;101031.94;5096369;27;45588;-63
2022/05/29 01:08:14;;;;;;;;;2.00;2.00;;;;;16.27;40.36;101027.03;5096320;27;45458;-62
2022/05/29 01:11:04;;;;;;;;;1.00;1.00;;;;;16.30;41.00;101034.84;5096239;27;45517;-63
2022/05/29 01:13:59;;;;;;;;;2.00;2.00;;;;;16.22;41.37;101030.88;5096366;27;45465;-63
2022/05/29 01:16:52;;;;;;;;;1.00;1.00;;;;;16.15;41.38;101027.69;5096344;27;45400;-63
2022/05/29 01:19:46;;;;;;;;;2.00;2.00;;;;;16.00;41.31;101021.34;5095945;27;46160;-63
2022/05/29 01:22:35;;;;;;;;;1.67;1.67;;;;;15.99;41.05;101024.97;5096248;27;45403;-62
2022/05/29 01:25:19;;;;;;;;;2.00;2.00;;;;;15.94;41.42;101018.19;5096068;27;45589;-63
2022/05/29 01:27:47;;;;;;;;;3.00;3.00;;;;;15.93;42.26;101019.94;5095999;27;45517;-63
2022/05/29 01:30:20;;;;;;;;;2.00;1.33;;;;;15.88;41.91;101016.69;5095969;27;46376;-63
2022/05/29 01:33:10;;;;;;;;;1.33;1.00;;;;;15.80;41.65;101017.09;5096201;27;45545;-63
2022/05/29 01:35:58;;;;;;;;;3.67;2.00;;;;;15.73;42.54;101009.50;5096103;27;45569;-63
2022/05/29 01:38:30;;;;;;;;;1.00;1.00;;;;;15.68;43.07;101001.75;5095792;27;45463;-64
2022/05/29 01:41:33;;;;;;;;;1.00;1.00;;;;;15.61;43.57;101009.16;5095698;27;46265;-63
2022/05/29 01:44:13;;;;;;;;;1.67;1.67;;;;;15.51;43.96;101010.53;5090971;27;45560;-62
2022/05/29 01:46:39;;;;;;;;;3.00;2.33;;;;;15.34;43.70;101007.84;5095506;27;45520;-63
2022/05/29 01:49:16;;;;;;;;;3.33;2.33;;;;;15.37;43.51;101002.41;5095961;27;45620;-63
2022/05/29 01:51:46;;;;;;;;;1.67;1.67;;;;;15.43;42.89;101002.09;5095779;27;45467;-63
2022/05/29 01:54:24;;;;;;;;;1.33;1.33;;;;;15.40;43.95;101007.56;5095401;27;45534;-63
2022/05/29 01:56:54;;;;;;;;;1.00;1.00;;;;;15.46;43.20;100994.84;5095834;27;45467;-64
2022/05/29 01:59:29;;;;;;;;;1.67;1.67;;;;;15.49;42.73;101004.44;5096022;27;45520;-63
2022/05/29 02:02:01;;;;;;;;;1.33;1.00;;;;;15.44;43.37;101009.13;5095406;27;45765;-63
2022/05/29 02:04:30;;;;;;;;;2.67;2.00;;;;;15.44;43.88;100998.50;5095432;27;45478;-64
2022/05/29 02:09:54;;;;;;;;;4.00;2.00;;;;;15.28;44.32;101000.19;5095636;27;45419;-63
2022/05/29 02:12:24;;;;;;;;;3.00;3.00;;;;;15.26;44.08;101000.28;5095200;27;46360;-64
2022/05/29 02:14:59;;;;;;;;;1.00;1.00;;;;;15.32;44.05;101005.28;5094853;27;45482;-64
2022/05/29 02:17:32;;;;;;;;;3.00;1.67;;;;;15.36;44.47;101000.69;5095442;27;45463;-64
2022/05/29 02:20:04;;;;;;;;;2.00;1.00;;;;;15.26;45.19;101000.28;5095564;27;45456;-64
2022/05/29 02:22:35;;;;;;;;;3.00;3.00;;;;;15.31;44.46;100992.09;5095024;27;45714;-63
2022/05/29 02:25:08;;;;;;;;;1.33;1.33;;;;;15.42;44.24;101000.38;5094852;27;45506;-62
2022/05/29 02:27:51;;;;;;;;;2.33;2.33;;;;;15.45;44.33;101000.25;5095439;27;45502;-63
2022/05/29 02:30:18;;;;;;;;;3.00;2.67;;;;;15.36;43.96;100993.59;5095173;27;45481;-63
2022/05/29 02:33:04;;;;;;;;;1.00;1.00;;;;;15.42;43.92;100995.97;5094956;27;45510;-63
2022/05/29 02:35:49;;;;;;;;;2.00;2.00;;;;;15.32;44.73;100984.09;5095281;27;45420;-64
2022/05/29 02:38:43;;;;;;;;;2.00;2.00;;;;;15.22;45.20;100988.09;5095259;27;45549;-63
2022/05/29 02:41:21;;;;;;;;;2.00;2.00;;;;;15.23;44.54;100981.88;5095185;27;45485;-63
2022/05/29 02:43:59;;;;;;;;;2.00;2.00;;;;;15.12;45.44;100976.22;5094813;27;45687;-63
2022/05/29 02:46:51;;;;;;;;;2.67;2.67;;;;;15.17;45.42;100982.16;5094722;27;45530;-63
2022/05/29 02:49:27;;;;;;;;;3.00;2.00;;;;;15.21;45.87;100986.41;5095043;27;45609;-63
2022/05/29 02:52:01;;;;;;;;;4.00;2.00;;;;;15.13;45.30;100980.63;5094985;27;45524;-62
2022/05/29 02:54:29;;;;;;;;;5.00;3.00;;;;;15.04;45.39;100979.25;5094710;27;45708;-63
2022/05/29 02:56:57;;;;;;;;;2.00;2.00;;;;;15.10;45.84;100978.97;5094762;27;45447;-64
2022/05/29 02:59:25;;;;;;;;;3.33;3.33;;;;;15.07;45.41;100983.53;5094917;27;45466;-62
2022/05/29 03:01:51;;;;;;;;;2.00;2.00;;;;;14.98;45.67;100977.75;5094601;27;45490;-62
2022/05/29 03:04:35;;;;;;;;;2.33;2.33;;;;;15.02;46.15;100973.19;5094509;27;45491;-61
2022/05/29 03:07:14;;;;;;;;;3.00;3.00;;;;;14.99;45.76;100968.88;5094568;27;45520;-62
2022/05/29 03:09:44;;;;;;;;;2.00;2.00;;;;;15.08;45.95;100972.88;5094611;27;45505;-63
2022/05/29 03:12:19;;;;;;;;;2.33;2.33;;;;;14.99;46.51;100974.19;5094479;27;45466;-62
2022/05/29 03:15:12;;;;;;;;;1.33;1.33;;;;;15.07;45.79;100980.88;5094322;27;46436;-63
2022/05/29 03:17:45;;;;;;;;;2.00;2.00;;;;;15.01;45.55;100968.81;5094166;27;45417;-62
2022/05/29 03:20:27;;;;;;;;;1.00;1.00;;;;;14.91;45.72;100975.47;5094402;27;45534;-62
2022/05/29 03:23:02;;;;;;;;;3.33;1.00;;;;;14.88;46.37;100972.97;5092557;27;45517;-62
2022/05/29 03:25:35;;;;;;;;;2.67;2.67;;;;;14.89;46.35;100977.34;5092684;27;45749;-63
2022/05/29 03:28:05;;;;;;;;;4.33;3.67;;;;;14.79;46.84;100976.91;5094413;27;45463;-63
2022/05/29 03:30:37;;;;;;;;;2.00;2.00;;;;;14.61;47.00;100972.47;5094235;27;45538;-63
2022/05/29 03:33:06;;;;;;;;;3.67;3.67;;;;;14.70;46.78;100970.25;5094443;27;45574;-64
2022/05/29 03:36:00;;;;;;;;;5.00;4.00;;;;;14.64;47.04;100972.31;5094167;27;45496;-63
2022/05/29 03:38:25;;;;;;;;;2.00;2.00;;;;;14.70;46.86;100959.66;5094144;27;45550;-64
2022/05/29 03:40:51;;;;;;;;;3.67;2.33;;;;;14.70;46.98;100964.13;5094080;27;45459;-64
2022/05/29 03:43:16;;;;;;;;;2.33;2.00;;;;;14.79;46.92;100971.63;5093902;27;45379;-63
2022/05/29 03:45:42;;;;;;;;;2.00;2.00;;;;;14.85;46.51;100968.66;5109619;27;46495;-63
2022/05/29 03:48:08;;;;;;;;;4.67;4.00;;;;;14.86;46.14;100969.56;5094117;27;45544;-63
2022/05/29 03:50:34;;;;;;;;;3.67;1.67;;;;;14.78;46.83;100973.41;5094045;27;45525;-63
2022/05/29 03:53:01;;;;;;;;;1.67;1.67;;;;;14.78;46.94;100969.91;5094080;27;45645;-63
2022/05/29 03:55:26;;;;;;;;;2.00;2.00;;;;;14.71;47.22;100969.31;5094060;27;46191;-63
2022/05/29 03:57:52;;;;;;;;;3.67;3.00;;;;;14.65;47.20;100966.97;5093792;27;45521;-62
2022/05/29 04:00:20;;;;;;;;;3.00;3.00;;;;;14.65;47.75;100966.97;5094009;27;45523;-62
2022/05/29 04:02:46;;;;;;;;;2.00;2.00;;;;;14.73;47.11;100969.25;5093845;27;45597;-61
2022/05/29 04:05:16;;;;;;;;;3.00;3.00;;;;;14.79;47.21;100969.81;5093553;27;45528;-63
2022/05/29 04:13:12;;;;;;;;;2.00;2.00;;;;;14.84;46.62;100974.06;5093508;27;45375;-61
2022/05/29 04:15:45;;;;;;;;;3.00;3.00;;;;;14.80;46.81;100975.97;5093577;27;45521;-63
2022/05/29 04:18:15;;;;;;;;;2.00;2.00;;;;;14.82;46.25;100968.81;5093832;27;45542;-63
2022/05/29 04:20:40;;;;;;;;;2.33;1.33;;;;;14.86;46.94;100975.69;5093935;27;45445;-63
2022/05/29 04:23:06;;;;;;;;;3.00;3.00;;;;;14.90;47.40;100969.31;5092324;27;45458;-62
2022/05/29 04:25:31;;;;;;;;;2.33;2.33;;;;;14.89;46.39;100969.41;5093121;27;56822;-62
2022/05/29 04:27:56;;;;;;;;;2.00;2.00;;;;;14.80;46.99;100973.31;5109447;27;45677;-62
2022/05/29 04:30:22;;;;;;;;;2.00;2.00;;;;;14.75;47.04;100978.00;5093875;27;45375;-62
2022/05/29 04:32:59;;;;;;;;;4.33;3.00;;;;;14.73;47.09;100974.56;5093736;27;45421;-62
2022/05/29 04:35:26;;;;;;;;;2.33;1.33;;;;;14.69;47.09;100972.97;5093345;27;45597;-63
2022/05/29 04:37:51;;;;;;;;;3.00;2.67;;;;;14.70;47.23;100964.13;5093288;27;45491;-62
2022/05/29 04:40:17;;;;;;;;;1.33;1.33;;;;;14.74;46.94;100965.66;5096855;27;45421;-62
2022/05/29 04:42:42;;;;;;;;;3.00;3.00;;;;;14.64;47.06;100959.09;5096891;27;45712;-62
2022/05/29 04:45:08;;;;;;;;;4.00;2.33;;;;;14.65;47.04;100968.75;5096638;27;46319;-63
2022/05/29 04:47:33;;;;;;;;;1.33;1.33;;;;;14.74;47.42;100965.66;5096507;27;45490;-63
2022/05/29 04:49:58;;;;;;;;;1.00;1.00;;;;;14.81;47.27;100969.75;5096656;27;45489;-63
2022/05/29 04:52:24;;;;;;;;;4.00;2.33;;;;;14.78;47.29;100968.13;5096586;27;45512;-62
2022/05/29 04:54:49;;;;;;;;;1.67;1.67;;;;;14.71;46.91;100969.31;5096349;27;45676;-61
2022/05/29 04:57:17;;;;;;;;;2.00;2.00;;;;;14.78;46.65;100964.63;5096539;27;45571;-63
2022/05/29 04:59:42;;;;;;;;;4.33;3.00;;;;;14.75;47.01;100970.06;5096609;27;45490;-62
2022/05/29 05:02:08;;;;;;;;;5.00;3.00;;;;;14.77;47.30;100976.97;5096529;27;45500;-63
2022/05/29 05:04:33;;;;;;;;;2.00;2.00;;;;;14.82;47.19;100967.97;5096237;27;45543;-62
2022/05/29 05:06:59;;;;;;;;;2.67;2.67;;;;;14.80;47.27;100968.03;5096537;27;45432;-62
2022/05/29 05:09:26;;;;;;;;;2.00;2.00;;;;;14.77;47.35;100970.81;5096651;27;45584;-63
2022/05/29 05:11:53;;;;;;;;;5.00;4.00;;;;;14.69;47.70;100965.88;5096477;27;45425;-61
2022/05/29 05:14:19;;;;;;;;;3.00;2.00;;;;;14.68;47.82;100956.22;5096123;27;45485;-62
2022/05/29 05:16:45;;;;;;;;;2.00;2.00;;;;;14.70;47.49;100961.47;5096095;27;45497;-62
2022/05/29 05:19:11;;;;;;;;;3.33;2.67;;;;;14.75;47.91;100959.47;5096299;27;45440;-62
2022/05/29 05:21:36;;;;;;;;;3.00;2.00;;;;;14.67;47.02;100967.75;5096233;27;45388;-63
2022/05/29 05:24:04;;;;;;;;;3.67;3.67;;;;;14.63;47.92;100962.66;5096174;27;46188;-63
2022/05/29 05:26:29;;;;;;;;;3.33;2.67;;;;;14.63;48.00;100970.63;5096212;27;45390;-63
2022/05/29 05:28:55;;;;;;;;;3.00;3.00;;;;;14.63;48.28;100971.47;5096165;27;45517;-63
2022/05/29 05:31:20;;;;;;;;;1.67;1.67;;;;;14.67;48.38;100964.22;5096237;27;45503;-62
2022/05/29 05:33:46;;;;;;;;;3.00;3.00;;;;;14.63;48.08;100973.25;5094180;27;45467;-63
2022/05/29 05:36:12;;;;;;;;;4.33;4.00;;;;;14.63;47.73;100965.31;5096145;27;45448;-63
2022/05/29 05:38:37;;;;;;;;;3.00;3.00;;;;;14.66;47.94;100963.38;5096080;27;45511;-62
2022/05/29 05:41:03;;;;;;;;;3.33;3.33;;;;;14.56;48.25;100968.25;5095966;27;45535;-62
2022/05/29 05:43:28;;;;;;;;;2.67;2.00;;;;;14.65;47.83;100968.75;5095533;27;45528;-63
2022/05/29 05:45:53;;;;;;;;;3.00;3.00;;;;;14.71;47.53;100968.47;5095512;27;50462;-63
2022/05/29 05:48:19;;;;;;;;;2.00;2.00;;;;;14.74;47.60;100974.47;5095945;27;45489;-63
2022/05/29 05:50:44;;;;;;;;;4.33;3.00;;;;;14.78;47.72;100970.75;5094473;27;45659;-62
2022/05/29 05:53:09;;;;;;;;;3.33;3.00;;;;;14.79;48.19;100969.81;5111243;27;45557;-62
2022/05/29 05:55:36;;;;;;;;;3.00;3.00;;;;;14.82;47.90;100978.56;5095479;27;45450;-63
2022/05/29 05:58:03;;;;;;;;;4.33;3.33;;;;;14.83;47.48;100977.59;5095709;27;45426;-63
2022/05/29 06:00:28;;;;;;;;;2.33;2.33;;;;;14.79;47.33;100975.13;5095734;27;45583;-61
2022/05/29 06:02:54;;;;;;;;;4.00;3.67;;;;;14.83;47.48;100969.66;5095208;27;45418;-62
2022/05/29 06:05:19;;;;;;;;;2.33;2.33;;;;;14.85;47.61;100975.75;5095152;27;45505;-62
2022/05/29 06:07:45;;;;;;;;;2.67;2.00;;;;;14.85;47.36;100973.97;5095102;27;45408;-63
2022/05/29 06:10:11;;;;;;;;;3.00;3.00;;;;;14.91;47.39;100976.34;5095337;27;45479;-63
2022/05/29 06:12:37;;;;;;;;;4.67;4.00;;;;;14.94;46.65;100970.03;5094910;27;45641;-63
2022/05/29 06:15:04;;;;;;;;;3.00;2.00;;;;;14.93;47.14;100963.00;5095314;27;45465;-63
2022/05/29 06:17:31;;;;;;;;;5.00;3.67;;;;;15.00;47.10;100967.09;5095619;27;45493;-63
2022/05/29 06:19:56;;;;;;;;;2.00;2.00;;;;;15.05;47.52;100962.44;5095289;27;45509;-62
2022/05/29 06:22:21;;;;;;;;;3.67;3.00;;;;;15.07;47.04;100959.69;5095048;27;46146;-63
2022/05/29 06:24:47;;;;;;;;;3.33;3.33;;;;;15.14;46.04;100961.97;5095173;27;45440;-63
2022/05/29 06:27:12;;;;;;;;;2.00;2.00;;;;;15.13;46.84;100957.63;5095380;27;45513;-64
2022/05/29 06:29:38;;;;;;;;;3.33;1.00;;;;;15.09;45.60;100957.84;5095319;27;45637;-64
2022/05/29 06:32:08;;;;;;;;;2.00;2.00;;;;;15.10;46.69;100954.25;5095200;27;46055;-63
2022/05/29 06:34:34;;;;;;;;;3.00;3.00;;;;;15.07;46.77;100957.03;5095147;27;45516;-63
2022/05/29 06:37:05;;;;;;;;;2.33;2.33;;;;;15.14;46.49;100961.13;5095145;27;45501;-63
2022/05/29 06:39:31;;;;;;;;;3.00;3.00;;;;;15.19;46.90;100959.97;5093601;27;45511;-63
2022/05/29 06:41:58;;;;;;;;;1.33;1.33;;;;;15.26;46.46;100963.19;5094315;27;48832;-62
2022/05/29 06:44:23;;;;;;;;;3.00;3.00;;;;;15.34;45.37;100960.13;5094770;27;45481;-64
2022/05/29 06:46:48;;;;;;;;;3.00;3.00;;;;;15.39;46.10;100968.72;5094693;27;45421;-62
2022/05/29 06:49:14;;;;;;;;;4.00;4.00;;;;;15.46;44.95;100975.44;5095263;27;45558;-63
2022/05/29 06:51:39;;;;;;;;;2.00;2.00;;;;;15.48;45.48;100968.28;5094875;27;45440;-63
2022/05/29 06:54:05;;;;;;;;;3.33;2.00;;;;;15.50;44.99;100970.84;5094670;27;45622;-64
2022/05/29 06:56:31;;;;;;;;;4.33;4.00;;;;;15.55;45.79;100968.81;5094903;27;45528;-62
2022/05/29 06:58:58;;;;;;;;;1.67;1.67;;;;;15.52;45.38;100958.38;5095079;27;45582;-62
2022/05/29 07:06:59;;;;;;;;;2.33;2.33;;;;;15.58;45.45;100969.53;5094358;27;45486;-62
2022/05/29 07:07:22;;;;;;;;;2.00;2.00;;;;;15.44;45.23;100959.59;5094584;27;45478;-62
2022/05/29 07:09:47;;;;;;;;;2.00;2.00;;;;;15.33;45.37;100959.28;5094332;27;45679;-63
2022/05/29 07:12:27;;;;;;;;;2.00;2.00;;;;;15.39;45.36;100966.97;5094156;27;46000;-63
2022/05/29 07:15:00;;;;;;;;;3.00;2.00;;;;;15.45;44.38;100966.66;5094541;27;45459;-63
2022/05/29 07:17:27;;;;;;;;;2.33;2.33;;;;;15.54;44.39;100962.66;5094429;27;45491;-63
2022/05/29 07:19:53;;;;;;;;;1.00;1.00;;;;;15.60;44.49;100961.50;5094290;27;45513;-64
2022/05/29 07:22:18;;;;;;;;;2.00;2.00;;;;;15.54;44.00;100962.66;5094137;27;46139;-64
2022/05/29 07:24:44;;;;;;;;;2.00;2.00;;;;;15.51;43.62;100962.81;5094235;27;45553;-64
2022/05/29 07:27:10;;;;;;;;;1.00;1.00;;;;;15.59;43.81;100968.59;5093368;27;45458;-63
2022/05/29 07:29:35;;;;;;;;;3.00;3.00;;;;;15.62;43.30;100963.13;5094165;27;45651;-62
2022/05/29 07:32:02;;;;;;;;;1.00;1.00;;;;;15.59;43.40;100960.66;5093799;27;45987;-64
2022/05/29 07:34:27;;;;;;;;;2.00;2.00;;;;;15.61;42.11;100953.47;5094056;27;45512;-63
2022/05/29 07:36:55;;;;;;;;;2.00;2.00;;;;;15.67;42.48;100957.59;5094223;27;45472;-64
2022/05/29 07:39:21;;;;;;;;;1.00;1.00;;;;;15.69;42.86;100958.44;5093899;27;45432;-65
2022/05/29 07:44:31;;;;;;;;;2.00;2.00;;;;;15.72;42.84;100952.97;5093790;27;45403;-64
2022/05/29 07:46:56;;;;;;;;;1.33;1.33;;;;;15.79;42.01;100946.38;5093833;27;45461;-64
2022/05/29 07:49:22;;;;;;;;;3.00;1.00;;;;;15.86;42.10;100946.94;5092149;27;46071;-64
2022/05/29 07:51:48;;;;;;;;;0.67;0.67;;;;;15.90;41.40;100957.31;5093984;27;46117;-63
2022/05/29 07:54:14;;;;;;;;;1.00;1.00;;;;;15.97;40.62;100959.66;5093728;27;45454;-64
2022/05/29 07:56:39;;;;;;;;;0.67;0.67;;;;;15.99;40.16;100958.63;5093750;27;45490;-63
2022/05/29 07:59:05;;;;;;;;;1.33;1.00;;;;;15.97;40.13;100957.84;5093931;27;45732;-63
2022/05/29 08:01:30;;;;;;;;;1.67;1.67;;;;;15.93;39.94;100947.47;5093639;27;46124;-64
2022/05/29 08:03:56;;;;;;;;;3.00;2.00;;;;;15.93;40.75;100955.44;5093847;27;45529;-62
2022/05/29 08:06:22;;;;;;;;;1.33;1.00;;;;;15.93;40.73;100947.47;5093637;27;45472;-63
2022/05/29 08:08:47;;;;;;;;;1.00;1.00;;;;;15.99;40.45;100952.47;5093728;27;45492;-63
2022/05/29 08:11:14;;;;;;;;;1.00;1.00;;;;;16.04;40.51;100946.00;5093396;27;45726;-63
2022/05/29 08:13:40;;;;;;;;;0.67;0.67;;;;;16.10;39.32;100947.47;5094379;27;45423;-61
2022/05/29 08:16:06;;;;;;;;;1.00;1.00;;;;;16.11;39.23;100943.84;5097270;27;45515;-63
2022/05/29 08:18:31;;;;;;;;;2.00;2.00;;;;;16.09;38.64;100943.97;5097199;27;45583;-63
2022/05/29 08:20:56;;;;;;;;;1.00;1.00;;;;;16.10;38.66;100940.34;5096931;27;45647;-63
2022/05/29 08:23:22;;;;;;;;;1.33;1.33;;;;;16.12;38.12;100937.63;5096695;27;45561;-63
2022/05/29 08:31:15;;;;;;;;;0.00;0.00;;;;;16.23;38.83;100934.41;5096808;27;45462;-63
2022/05/29 08:33:41;;;;;;;;;2.67;2.67;;;;;16.27;38.68;100930.63;5112523;27;45537;-64
2022/05/29 08:36:10;;;;;;;;;1.67;1.67;;;;;16.32;38.07;100933.91;5096914;27;45782;-63
2022/05/29 08:38:44;;;;;;;;;0.33;0.33;;;;;16.35;38.69;100931.06;5096691;27;45550;-63
2022/05/29 08:41:14;;;;;;;;;0.67;0.67;;;;;16.39;38.18;100929.97;5096407;27;45541;-62
2022/05/29 08:43:55;;;;;;;;;1.00;1.00;;;;;16.39;38.05;100921.13;5096541;27;45509;-63
2022/05/29 08:46:36;;;;;;;;;1.33;1.33;;;;;16.40;38.41;100923.72;5096834;27;45519;-62
2022/05/29 08:49:03;;;;;;;;;2.00;1.00;;;;;16.50;38.33;100924.94;5096819;27;45497;-65
2022/05/29 08:51:53;;;;;;;;;1.00;1.00;;;;;16.56;38.34;100919.28;5096428;27;46014;-65
2022/05/29 08:54:44;;;;;;;;;0.67;0.67;;;;;16.59;37.41;100925.38;5096541;27;45399;-64
2022/05/29 08:57:32;;;;;;;;;3.67;3.00;;;;;16.61;37.51;100911.06;5096537;27;45467;-64
2022/05/29 09:00:07;;;;;;;;;2.00;1.67;;;;;16.53;38.01;100921.25;5096518;27;45509;-64
2022/05/29 09:03:20;;;;;;;;;1.00;1.00;;;;;16.42;38.80;100913.88;5096189;27;45466;-64
2022/05/29 09:05:57;;;;;;;;;1.00;1.00;;;;;16.39;39.18;100906.09;5094966;27;45519;-64
2022/05/29 09:08:49;;;;;;;;;1.33;1.33;;;;;16.43;37.73;100910.28;5096372;27;45507;-64
2022/05/29 09:11:21;;;;;;;;;2.00;2.00;;;;;16.44;38.35;100905.81;5096275;27;45462;-64
2022/05/29 09:13:54;;;;;;;;;3.00;2.00;;;;;16.35;38.03;100910.69;5096071;27;45645;-65
2022/05/29 09:16:23;;;;;;;;;1.00;1.00;;;;;16.33;37.84;100917.03;5096142;27;45541;-64
2022/05/29 09:18:54;;;;;;;;;0.67;0.67;;;;;16.37;38.73;100912.44;5095737;27;45569;-64
2022/05/29 09:21:25;;;;;;;;;2.00;2.00;;;;;16.37;38.49;100896.50;5096408;27;45608;-63
2022/05/29 09:24:01;;;;;;;;;5.33;5.33;;;;;16.49;38.76;100887.84;5095950;27;45473;-63
2022/05/29 09:26:35;;;;;;;;;1.67;1.67;;;;;16.48;36.78;100905.56;5096110;27;45477;-65
2022/05/29 09:29:01;;;;;;;;;0.00;0.00;;;;;16.45;37.05;100889.81;5095705;27;45455;-63
2022/05/29 09:31:26;;;;;;;;;1.00;1.00;;;;;16.52;37.30;100887.66;5096018;27;45672;-64
2022/05/29 09:33:52;;;;;;;;;0.00;0.00;;;;;16.60;37.01;100885.44;5095698;27;45513;-63
2022/05/29 09:36:23;;;;;;;;;0.67;0.67;;;;;16.67;37.22;100886.81;5096129;27;45444;-64
2022/05/29 09:39:08;;;;;;;;;0.00;0.00;;;;;16.72;36.13;100883.91;5096092;27;45812;-63
2022/05/29 09:41:42;;;;;;;;;1.00;1.00;;;;;16.66;34.55;100874.50;5095562;27;45462;-63
2022/05/29 09:44:09;;;;;;;;;1.00;1.00;;;;;16.69;34.81;100882.28;5095712;27;45561;-63
2022/05/29 09:46:41;;;;;;;;;1.67;1.67;;;;;16.64;34.92;100875.53;5095385;27;45440;-64
2022/05/29 09:52:21;;;;;;;;;0.00;0.00;;;;;16.78;34.88;100875.63;5095818;27;45469;-62
2022/05/29 09:54:56;;;;;;;;;1.67;1.67;;;;;16.78;35.46;100880.94;5094738;27;45427;-63
2022/05/29 09:57:28;;;;;;;;;1.00;1.00;;;;;16.82;34.72;100863.88;5095470;27;45426;-64
2022/05/29 10:00:02;;;;;;;;;2.00;1.67;;;;;16.86;35.25;100861.91;5111395;27;45490;-63
2022/05/29 10:02:37;;;;;;;;;0.00;0.00;;;;;16.77;34.84;100863.28;5095302;27;45572;-63
2022/05/29 10:05:07;;;;;;;;;1.00;1.00;;;;;16.72;34.07;100863.50;5095221;27;46743;-64
2022/05/29 10:07:44;;;;;;;;;1.00;1.00;;;;;16.66;34.41;100863.03;5095407;27;45467;-64
2022/05/29 10:10:27;;;;;;;;;3.00;1.33;;;;;16.64;35.40;100860.44;5095682;27;45656;-64
2022/05/29 10:12:56;;;;;;;;;1.00;1.00;;;;;16.65;35.05;100858.63;5095245;27;45435;-63
2022/05/29 10:15:24;;;;;;;;;2.00;1.00;;;;;16.83;35.51;100859.44;5094677;27;46183;-64
2022/05/29 10:17:49;;;;;;;;;1.00;1.00;;;;;16.94;34.89;100867.63;5095118;27;45529;-64
2022/05/29 10:20:27;;;;;;;;;1.33;1.33;;;;;16.98;35.80;100864.72;5095175;27;46980;-65
2022/05/29 10:22:55;;;;;;;;;1.67;1.00;;;;;16.92;35.78;100857.06;5095108;27;45469;-63
2022/05/29 10:25:34;;;;;;;;;3.67;1.00;;;;;17.05;35.99;100862.53;5094832;27;46572;-64
2022/05/29 10:28:13;;;;;;;;;2.00;2.00;;;;;17.14;35.91;100848.75;5095228;27;45403;-65
2022/05/29 10:30:48;;;;;;;;;1.67;1.67;;;;;17.18;36.04;100866.19;5095064;27;45506;-65
2022/05/29 10:33:27;;;;;;;;;0.67;0.67;;;;;17.21;35.76;100859.84;5095013;27;45495;-64
2022/05/29 10:35:58;;;;;;;;;1.67;1.67;;;;;17.29;36.34;100857.59;5094144;27;46085;-63
2022/05/29 10:38:29;;;;;;;;;2.00;1.00;;;;;17.40;35.56;100865.78;5094759;27;45402;-63
2022/05/29 10:40:57;;;;;;;;;2.33;0.67;;;;;17.38;35.00;100862.38;5094764;27;45395;-63
2022/05/29 10:43:45;;;;;;;;;2.00;2.00;;;;;17.48;34.84;100859.16;5094584;27;45636;-63
2022/05/29 10:46:10;;;;;;;;;0.00;0.00;;;;;17.50;34.59;100852.81;5094428;27;45450;-63
2022/05/29 10:48:44;;;;;;;;;1.00;1.00;;;;;17.38;34.28;100846.44;5094679;27;45472;-64
2022/05/29 10:51:28;;;;;;;;;1.00;1.00;;;;;17.31;34.67;100839.75;5094781;27;45434;-63
2022/05/29 10:54:21;;;;;;;;;2.00;2.00;;;;;17.23;34.45;100836.69;5094748;27;45422;-65
2022/05/29 10:57:10;;;;;;;;;1.00;1.00;;;;;17.08;34.64;100826.97;5094237;27;45419;-62
2022/05/29 10:59:47;;;;;;;;;1.00;1.00;;;;;17.10;33.78;100830.41;5094499;27;45549;-64
2022/05/29 11:05:41;;;;;;;;;1.33;1.33;;;;;17.09;33.43;100826.03;5088582;27;45510;-63
2022/05/29 11:08:28;;;;;;;;;2.00;2.00;;;;;17.12;33.68;100831.16;5094183;27;46330;-64
2022/05/29 11:11:14;;;;;;;;;8.67;8.67;;;;;17.08;34.47;100825.16;5094468;27;45560;-63
2022/05/29 11:14:03;;;;;;;;;0.00;0.00;;;;;17.09;34.17;100829.53;5092975;27;45473;-63
2022/05/29 11:16:43;;;;;;;;;6.00;5.00;;;;;17.17;35.11;100829.09;5091021;27;45602;-64
2022/05/29 11:19:26;;;;;;;;;3.00;3.00;;;;;17.21;34.45;100825.28;5094340;27;45512;-63
2022/05/29 11:22:32;;;;;;;;;6.00;6.00;;;;;17.29;34.86;100831.00;5094287;27;45430;-64
2022/05/29 11:25:17;;;;;;;;;2.00;2.00;;;;;17.32;35.25;100820.19;5094336;27;45427;-63
2022/05/29 11:27:54;;;;;;;;;4.33;4.33;;;;;17.41;34.82;100817.00;5094046;27;45643;-63
2022/05/29 11:30:28;;;;;;;;;3.00;3.00;;;;;17.53;34.87;100806.56;5093941;27;46812;-62
2022/05/29 11:33:23;;;;;;;;;2.00;2.00;;;;;17.67;34.94;100811.88;5094107;27;45477;-63
2022/05/29 11:35:58;;;;;;;;;2.67;2.67;;;;;17.78;34.73;100803.22;5094189;27;45570;-62
2022/05/29 11:38:43;;;;;;;;;3.00;1.67;;;;;17.78;34.57;100792.59;5094347;27;45460;-63
2022/05/29 11:41:17;;;;;;;;;1.67;1.67;;;;;17.67;33.66;100787.94;5093542;27;46287;-63
2022/05/29 11:43:49;;;;;;;;;2.00;1.33;;;;;17.67;33.63;100779.94;5093855;27;45585;-63
2022/05/29 11:52:15;;;;;;;;;2.00;2.00;;;;;17.57;33.62;100771.72;5097533;27;45520;-64
2022/05/29 11:54:49;;;;;;;;;2.00;2.00;;;;;17.61;33.88;100762.56;5097676;27;45567;-63
2022/05/29 11:57:25;;;;;;;;;1.00;1.00;;;;;17.73;34.22;100760.97;5097672;27;45383;-63
2022/05/29 11:59:59;;;;;;;;;3.00;3.00;;;;;17.79;33.75;100751.78;5097887;27;45528;-64
2022/05/29 12:02:36;;;;;;;;;2.67;2.67;;;;;17.88;33.78;100756.50;5097566;27;47088;-63
2022/05/29 12:05:29;;;;;;;;;2.00;2.00;;;;;17.99;34.02;100753.16;5097099;27;45663;-63
2022/05/29 12:08:11;;;;;;;;;2.67;2.67;;;;;18.08;33.62;100744.56;5097638;27;45536;-63
2022/05/29 12:10:50;;;;;;;;;2.67;2.67;;;;;18.09;31.64;100747.16;5097750;27;45483;-62
2022/05/29 12:13:18;;;;;;;;;1.33;1.33;;;;;17.92;30.79;100744.72;5097341;27;45435;-65
2022/05/29 12:15:53;;;;;;;;;3.00;3.00;;;;;17.95;31.39;100749.84;5097631;27;45463;-65
2022/05/29 12:18:20;;;;;;;;;3.00;1.67;;;;;18.06;31.94;100749.16;5097697;27;45477;-64